createdAt,value
2022-10-21T00:01:25.611Z,3.28
2022-10-21T00:03:53.076Z,3.55
2022-10-21T00:06:20.297Z,3.08
2022-10-21T00:08:47.578Z,2.83
2022-10-21T00:11:14.861Z,3.00
2022-10-21T00:13:41.749Z,3.03
2022-10-21T00:16:09.062Z,3.10
2022-10-21T00:18:36.923Z,2.80
2022-10-21T00:21:11.946Z,3.33
2022-10-21T00:23:39.193Z,3.72
2022-10-21T00:26:06.544Z,3.40
2022-10-21T00:28:34.446Z,4.30
2022-10-21T00:31:01.725Z,3.78
2022-10-21T00:33:29.295Z,4.30
2022-10-21T00:35:57.761Z,3.92
2022-10-21T00:38:25.087Z,3.92
2022-10-21T00:40:52.299Z,3.58
2022-10-21T00:43:19.407Z,3.92
2022-10-21T00:45:47.947Z,3.72
2022-10-21T00:48:33.300Z,3.90
2022-10-21T00:51:07.636Z,3.28
2022-10-21T00:53:36.108Z,3.60
2022-10-21T00:56:06.476Z,2.85
2022-10-21T00:58:34.715Z,3.00
2022-10-21T01:01:03.256Z,2.78
2022-10-21T01:03:32.261Z,2.85
2022-10-21T01:06:01.180Z,2.97
2022-10-21T01:08:29.322Z,3.25
2022-10-21T01:10:56.984Z,2.55
2022-10-21T01:13:43.099Z,2.55
2022-10-21T01:16:10.299Z,2.58
2022-10-21T01:18:37.464Z,2.35
2022-10-21T01:21:07.792Z,2.60
2022-10-21T01:23:49.853Z,2.80
2022-10-21T01:26:26.517Z,3.17
2022-10-21T01:29:00.298Z,3.17
2022-10-21T01:31:33.786Z,2.50
2022-10-21T01:34:00.949Z,3.05
2022-10-21T01:36:31.945Z,4.03
2022-10-21T01:39:00.663Z,4.00
2022-10-21T01:41:37.034Z,3.65
2022-10-21T01:44:20.446Z,3.72
2022-10-21T01:46:50.360Z,3.42
2022-10-21T01:49:28.952Z,3.90
2022-10-21T01:51:56.495Z,3.20
2022-10-21T01:54:25.980Z,2.97
2022-10-21T01:56:53.723Z,3.42
2022-10-21T01:59:21.787Z,3.00
2022-10-21T02:01:49.900Z,2.72
2022-10-21T02:04:18.645Z,2.53
2022-10-21T02:06:45.628Z,3.42
2022-10-21T02:09:12.863Z,2.60
2022-10-21T02:11:42.640Z,2.33
2022-10-21T02:14:20.497Z,2.72
2022-10-21T02:16:48.520Z,2.80
2022-10-21T02:19:17.220Z,2.97
2022-10-21T02:21:46.091Z,3.50
2022-10-21T02:24:21.839Z,2.97
2022-10-21T02:26:49.145Z,2.95
2022-10-21T02:29:19.679Z,3.00
2022-10-21T02:32:06.828Z,2.78
2022-10-21T02:34:44.314Z,2.78
2022-10-21T02:37:20.956Z,3.25
2022-10-21T02:39:52.739Z,3.22
2022-10-21T02:42:29.279Z,2.97
2022-10-21T02:44:56.570Z,2.95
2022-10-21T02:47:26.235Z,3.22
2022-10-21T02:49:53.425Z,2.53
2022-10-21T02:52:20.644Z,1.98
2022-10-21T02:54:47.928Z,2.47
2022-10-21T02:57:15.232Z,2.63
2022-10-21T02:59:42.435Z,2.40
2022-10-21T03:02:09.663Z,2.45
2022-10-21T03:04:36.865Z,3.10
2022-10-21T03:07:04.145Z,2.70
2022-10-21T03:09:31.366Z,3.05
2022-10-21T03:11:58.590Z,3.45
2022-10-21T03:14:25.791Z,2.60
2022-10-21T03:16:53.036Z,2.60
2022-10-21T03:19:20.623Z,2.80
2022-10-21T03:21:48.014Z,3.13
2022-10-21T03:24:24.946Z,2.65
2022-10-21T03:26:55.067Z,2.30
2022-10-21T03:29:22.354Z,2.50
2022-10-21T03:31:49.658Z,2.60
2022-10-21T03:34:17.003Z,2.45
2022-10-21T03:36:44.498Z,2.60
2022-10-21T03:39:12.385Z,2.50
2022-10-21T03:41:39.776Z,2.67
2022-10-21T03:44:07.205Z,2.50
2022-10-21T03:46:34.514Z,2.75
2022-10-21T03:49:04.201Z,2.60
2022-10-21T03:51:33.095Z,2.60
2022-10-21T03:54:00.313Z,3.03
2022-10-21T03:56:27.735Z,2.88
2022-10-21T03:58:58.486Z,2.83
2022-10-21T04:01:27.391Z,3.33
2022-10-21T04:03:54.629Z,2.70
2022-10-21T04:06:21.991Z,3.17
2022-10-21T04:08:49.696Z,2.47
2022-10-21T04:11:16.988Z,2.65
2022-10-21T04:13:44.346Z,3.53
2022-10-21T04:16:14.532Z,2.90
2022-10-21T04:18:41.936Z,2.85
2022-10-21T04:21:09.220Z,2.53
2022-10-21T04:23:37.070Z,2.83
2022-10-21T04:26:05.082Z,2.67
2022-10-21T04:28:32.324Z,2.67
2022-10-21T04:30:59.726Z,2.58
2022-10-21T04:33:27.216Z,2.50
2022-10-21T04:35:55.039Z,2.85
2022-10-21T04:38:22.805Z,2.60
2022-10-21T04:40:56.265Z,2.42
2022-10-21T04:43:23.534Z,3.50
2022-10-21T04:45:50.997Z,2.78
2022-10-21T04:48:18.508Z,3.10
2022-10-21T04:50:45.720Z,3.13
2022-10-21T04:53:12.944Z,3.00
2022-10-21T04:55:40.371Z,3.10
2022-10-21T04:58:07.634Z,2.83
2022-10-21T05:00:34.986Z,2.72
2022-10-21T05:03:02.460Z,2.88
2022-10-21T05:05:30.196Z,2.53
2022-10-21T05:07:57.408Z,2.90
2022-10-21T05:10:25.514Z,3.22
2022-10-21T05:12:53.225Z,3.05
2022-10-21T05:15:20.652Z,3.10
2022-10-21T05:17:47.910Z,3.72
2022-10-21T05:20:15.131Z,2.95
2022-10-21T05:22:42.585Z,3.15
2022-10-21T05:25:09.735Z,2.97
2022-10-21T05:27:36.979Z,3.33
2022-10-21T05:30:05.347Z,3.15
2022-10-21T05:32:32.787Z,3.53
2022-10-21T05:34:59.841Z,3.15
2022-10-21T05:37:27.452Z,3.10
2022-10-21T05:39:54.765Z,2.75
2022-10-21T05:42:22.009Z,2.20
2022-10-21T05:44:49.312Z,2.90
2022-10-21T05:47:16.897Z,2.70
2022-10-21T05:49:44.228Z,2.80
2022-10-21T05:52:11.081Z,2.80
2022-10-21T05:54:38.271Z,2.58
2022-10-21T05:57:05.484Z,3.03
2022-10-21T05:59:32.809Z,2.80
2022-10-21T06:02:00.033Z,3.33
2022-10-21T06:04:27.279Z,3.15
2022-10-21T06:06:54.512Z,3.40
2022-10-21T06:09:21.747Z,3.50
2022-10-21T06:11:48.977Z,4.60
2022-10-21T06:14:16.171Z,4.28
2022-10-21T06:16:42.946Z,3.95
2022-10-21T06:19:10.202Z,4.82
2022-10-21T06:21:37.540Z,3.55
2022-10-21T06:24:04.735Z,3.95
2022-10-21T06:26:34.649Z,3.97
2022-10-21T06:29:04.098Z,4.00
2022-10-21T06:31:31.332Z,4.05
2022-10-21T06:33:58.533Z,3.92
2022-10-21T06:36:25.777Z,3.83
2022-10-21T06:38:53.060Z,3.55
2022-10-21T06:41:20.288Z,3.30
2022-10-21T06:43:47.542Z,3.58
2022-10-21T06:46:15.687Z,3.88
2022-10-21T06:48:42.943Z,3.35
2022-10-21T06:51:11.881Z,3.20
2022-10-21T06:53:39.660Z,3.58
2022-10-21T06:56:09.150Z,4.45
2022-10-21T06:58:36.740Z,3.50
2022-10-21T07:01:16.558Z,3.50
2022-10-21T07:03:55.959Z,3.35
2022-10-21T07:06:23.310Z,3.28
2022-10-21T07:08:58.035Z,3.67
2022-10-21T07:11:26.467Z,3.72
2022-10-21T07:13:53.691Z,4.05
2022-10-21T07:16:25.752Z,3.38
2022-10-21T07:18:53.523Z,3.28
2022-10-21T07:21:22.135Z,4.10
2022-10-21T07:23:51.237Z,4.38
2022-10-21T07:26:19.428Z,4.70
2022-10-21T07:28:47.876Z,4.88
2022-10-21T07:31:15.799Z,3.88
2022-10-21T07:33:43.395Z,4.40
2022-10-21T07:36:12.855Z,3.28
2022-10-21T07:38:41.211Z,3.63
2022-10-21T07:41:08.436Z,3.83
2022-10-21T07:43:35.661Z,3.78
2022-10-21T07:46:06.106Z,3.38
2022-10-21T07:48:34.238Z,3.40
2022-10-21T07:51:05.600Z,5.07
2022-10-21T07:53:32.947Z,4.35
2022-10-21T07:56:07.111Z,4.20
2022-10-21T07:58:34.392Z,3.50
2022-10-21T08:01:02.996Z,3.75
2022-10-21T08:03:30.468Z,3.45
2022-10-21T08:05:57.796Z,4.07
2022-10-21T08:08:25.593Z,4.50
2022-10-21T08:10:53.320Z,3.75
2022-10-21T08:13:20.772Z,4.40
2022-10-21T08:15:53.139Z,4.68
2022-10-21T08:18:21.499Z,4.15
2022-10-21T08:20:49.408Z,4.28
2022-10-21T08:23:18.386Z,4.60
2022-10-21T08:25:49.532Z,4.13
2022-10-21T08:28:16.778Z,3.95
2022-10-21T08:30:44.695Z,4.82
2022-10-21T08:33:12.924Z,3.90
2022-10-21T08:35:40.678Z,4.10
2022-10-21T08:38:08.421Z,3.20
2022-10-21T08:40:38.667Z,3.38
2022-10-21T08:43:11.337Z,3.00
2022-10-21T08:45:47.099Z,3.28
2022-10-21T08:48:16.395Z,3.13
2022-10-21T08:50:46.050Z,2.92
2022-10-21T08:53:16.149Z,3.17
2022-10-21T08:55:44.656Z,3.45
2022-10-21T08:58:18.686Z,3.05
2022-10-21T09:00:48.201Z,3.10
2022-10-21T09:03:30.637Z,2.88
2022-10-21T09:06:18.321Z,2.67
2022-10-21T09:08:46.272Z,3.17
2022-10-21T09:11:20.219Z,3.53
2022-10-21T09:14:07.304Z,2.63
2022-10-21T09:16:43.179Z,2.90
2022-10-21T09:19:17.110Z,3.20
2022-10-21T09:21:44.264Z,3.25
2022-10-21T09:24:33.150Z,2.83
2022-10-21T09:27:00.923Z,2.70
2022-10-21T09:29:28.082Z,3.08
2022-10-21T09:32:02.091Z,2.88
2022-10-21T09:34:35.061Z,2.72
2022-10-21T09:37:03.164Z,2.72
2022-10-21T09:39:34.755Z,3.03
2022-10-21T09:42:07.364Z,3.10
2022-10-21T09:44:45.927Z,3.08
2022-10-21T09:47:21.207Z,2.83
2022-10-21T09:50:07.885Z,2.97
2022-10-21T09:52:37.200Z,2.90
2022-10-21T09:55:04.758Z,3.03
2022-10-21T09:58:07.588Z,3.63
2022-10-21T10:00:41.996Z,2.78
2022-10-21T10:03:09.263Z,3.10
2022-10-21T10:05:38.455Z,3.13
2022-10-21T10:08:24.335Z,3.25
2022-10-21T10:10:51.567Z,3.42
2022-10-21T10:13:19.877Z,2.92
2022-10-21T10:15:47.139Z,3.20
2022-10-21T10:18:24.526Z,2.72
2022-10-21T10:21:14.834Z,2.60
2022-10-21T10:23:49.828Z,2.40
2022-10-21T10:26:21.762Z,2.53
2022-10-21T10:28:50.872Z,2.13
2022-10-21T10:31:25.597Z,2.03
2022-10-21T10:33:58.806Z,1.50
2022-10-21T10:36:34.363Z,1.55
2022-10-21T10:39:02.799Z,1.30
2022-10-21T10:41:35.298Z,1.38
2022-10-21T10:44:08.656Z,1.15
2022-10-21T10:46:37.138Z,1.33
2022-10-21T10:49:13.380Z,1.63
2022-10-21T10:51:42.525Z,1.23
2022-10-21T10:54:16.426Z,1.00
2022-10-21T10:56:55.501Z,1.20
2022-10-21T10:59:45.052Z,1.38
2022-10-21T11:02:12.970Z,1.48
2022-10-21T11:04:49.509Z,1.40
2022-10-21T11:07:22.159Z,1.35
2022-10-21T11:09:52.027Z,1.20
2022-10-21T11:12:23.629Z,1.42
2022-10-21T11:14:52.312Z,1.30
2022-10-21T11:17:21.222Z,1.20
2022-10-21T11:20:08.719Z,1.15
2022-10-21T11:22:54.602Z,1.20
2022-10-21T11:25:22.231Z,0.95
2022-10-21T11:27:49.535Z,1.00
2022-10-21T11:30:21.497Z,0.90
2022-10-21T11:32:48.773Z,1.05
2022-10-21T11:35:31.242Z,0.82
2022-10-21T11:38:07.737Z,0.80
2022-10-21T11:40:38.327Z,0.65
2022-10-21T11:43:20.771Z,0.90
2022-10-21T11:45:54.284Z,0.93
2022-10-21T11:48:33.655Z,1.17
2022-10-21T11:51:18.427Z,1.13
2022-10-21T11:53:45.602Z,1.23
2022-10-21T11:56:27.471Z,1.00
2022-10-21T11:58:54.634Z,0.82
2022-10-21T12:01:24.849Z,1.20
2022-10-21T12:03:58.001Z,1.33
2022-10-21T12:06:56.429Z,1.65
2022-10-21T12:09:27.452Z,0.95
2022-10-21T12:12:02.555Z,1.20
2022-10-21T12:14:34.480Z,1.30
2022-10-21T12:17:04.484Z,1.17
2022-10-21T12:19:32.604Z,1.20
2022-10-21T12:22:00.605Z,1.35
2022-10-21T12:24:39.281Z,1.13
2022-10-21T12:27:25.336Z,1.30
2022-10-21T12:30:05.635Z,0.98
2022-10-21T12:32:51.706Z,1.02
2022-10-21T12:35:27.544Z,1.20
2022-10-21T12:37:54.779Z,1.25
2022-10-21T12:40:28.026Z,1.10
2022-10-21T12:43:00.479Z,1.00
2022-10-21T12:45:35.585Z,1.08
2022-10-21T12:48:06.694Z,1.30
2022-10-21T12:50:34.750Z,1.00
2022-10-21T12:53:07.463Z,1.20
2022-10-21T12:55:40.820Z,1.40
2022-10-21T12:58:19.798Z,1.30
2022-10-21T13:00:50.094Z,1.10
2022-10-21T13:03:21.979Z,0.93
2022-10-21T13:05:50.590Z,1.52
2022-10-21T13:08:22.806Z,1.40
2022-10-21T13:11:05.607Z,1.02
2022-10-21T13:13:42.240Z,1.33
2022-10-21T13:16:19.018Z,0.80
2022-10-21T13:18:52.336Z,1.00
2022-10-21T13:21:25.712Z,1.27
2022-10-21T13:23:54.373Z,0.88
2022-10-21T13:26:24.251Z,0.80
2022-10-21T13:28:59.289Z,0.77
2022-10-21T13:31:26.719Z,1.10
2022-10-21T13:33:55.758Z,1.02
2022-10-21T13:36:45.499Z,1.00
2022-10-21T13:39:34.584Z,1.00
2022-10-21T13:42:07.601Z,0.90
2022-10-21T13:44:36.317Z,0.70
2022-10-21T13:47:22.233Z,1.10
2022-10-21T13:49:54.211Z,0.70
2022-10-21T13:52:21.590Z,0.93
2022-10-21T13:54:56.956Z,1.30
2022-10-21T13:57:24.171Z,0.73
2022-10-21T14:00:17.221Z,0.90
2022-10-21T14:02:51.722Z,1.00
2022-10-21T14:05:27.852Z,0.88
2022-10-21T14:07:55.184Z,1.00
2022-10-21T14:10:22.566Z,1.30
2022-10-21T14:12:50.403Z,1.33
2022-10-21T14:15:28.808Z,1.15
2022-10-21T14:17:58.111Z,1.10
2022-10-21T14:20:35.269Z,1.10
2022-10-21T14:23:04.404Z,1.13
2022-10-21T14:25:32.062Z,1.02
2022-10-21T14:28:00.353Z,1.63
2022-10-21T14:30:29.958Z,0.70
2022-10-21T14:32:59.393Z,1.00
2022-10-21T14:35:28.760Z,1.80
2022-10-21T14:38:00.054Z,1.67
2022-10-21T14:40:32.354Z,1.17
2022-10-21T14:43:04.645Z,1.50
2022-10-21T14:45:33.754Z,1.52
2022-10-21T14:48:11.251Z,1.42
2022-10-21T14:50:40.187Z,1.17
2022-10-21T14:53:15.250Z,1.10
2022-10-21T14:55:43.049Z,1.20
2022-10-21T14:58:11.157Z,1.67
2022-10-21T15:00:41.615Z,1.17
2022-10-21T15:03:12.953Z,1.25
2022-10-21T15:05:48.552Z,2.03
2022-10-21T15:08:24.992Z,1.73
2022-10-21T15:10:58.844Z,1.33
2022-10-21T15:13:26.965Z,1.40
2022-10-21T15:15:54.947Z,1.50
2022-10-21T15:18:27.743Z,2.15
2022-10-21T15:20:57.463Z,1.70
2022-10-21T15:23:44.934Z,1.33
2022-10-21T15:26:16.598Z,1.50
2022-10-21T15:28:43.887Z,1.38
2022-10-21T15:31:19.457Z,1.38
2022-10-21T15:33:48.541Z,1.98
2022-10-21T15:36:16.232Z,1.80
2022-10-21T15:38:46.969Z,2.30
2022-10-21T15:41:18.229Z,1.73
2022-10-21T15:43:51.314Z,2.30
2022-10-21T15:46:18.599Z,1.70
2022-10-21T15:48:45.804Z,2.08
2022-10-21T15:51:13.027Z,2.10
2022-10-21T15:53:43.745Z,2.58
2022-10-21T15:56:15.830Z,1.70
2022-10-21T15:58:43.339Z,1.88
2022-10-21T16:01:15.282Z,2.20
2022-10-21T16:03:42.620Z,1.90
2022-10-21T16:06:14.652Z,1.77
2022-10-21T16:08:41.930Z,2.35
2022-10-21T16:11:21.862Z,2.10
2022-10-21T16:13:57.292Z,1.63
2022-10-21T16:16:25.704Z,2.45
2022-10-21T16:18:53.449Z,2.00
2022-10-21T16:21:21.888Z,2.05
2022-10-21T16:23:49.654Z,1.60
2022-10-21T16:26:20.276Z,2.42
2022-10-21T16:28:47.667Z,1.80
2022-10-21T16:31:15.509Z,1.73
2022-10-21T16:33:42.970Z,1.60
2022-10-21T16:36:15.957Z,1.73
2022-10-21T16:38:45.282Z,1.92
2022-10-21T16:41:13.723Z,1.77
2022-10-21T16:43:41.308Z,2.28
2022-10-21T16:46:37.976Z,1.40
2022-10-21T16:49:10.475Z,1.33
2022-10-21T16:51:39.797Z,1.60
2022-10-21T16:54:07.205Z,2.03
2022-10-21T16:56:34.741Z,1.50
2022-10-21T16:59:02.247Z,1.50
2022-10-21T17:01:29.984Z,1.60
2022-10-21T17:03:57.421Z,1.77
2022-10-21T17:06:25.839Z,1.58
2022-10-21T17:08:53.959Z,1.45
2022-10-21T17:11:24.661Z,1.50
2022-10-21T17:13:52.098Z,1.65
2022-10-21T17:16:20.388Z,1.52
2022-10-21T17:18:48.473Z,1.73
2022-10-21T17:21:21.809Z,1.88
2022-10-21T17:23:49.868Z,1.80
2022-10-21T17:26:17.183Z,1.40
2022-10-21T17:28:44.787Z,2.75
2022-10-21T17:31:16.282Z,2.20
2022-10-21T17:33:43.822Z,2.22
2022-10-21T17:36:11.269Z,1.88
2022-10-21T17:38:38.595Z,1.95
2022-10-21T17:41:06.056Z,1.65
2022-10-21T17:43:33.339Z,1.50
2022-10-21T17:46:00.864Z,1.02
2022-10-21T17:48:28.229Z,1.50
2022-10-21T17:50:57.436Z,2.00
2022-10-21T17:53:24.958Z,1.30
2022-10-21T17:56:02.590Z,1.20
2022-10-21T17:58:30.053Z,1.58
2022-10-21T18:00:57.912Z,1.60
2022-10-21T18:03:26.016Z,1.48
2022-10-21T18:05:54.064Z,1.20
2022-10-21T18:08:20.888Z,1.83
2022-10-21T18:10:55.552Z,1.10
2022-10-21T18:13:23.532Z,1.50
2022-10-21T18:15:51.288Z,1.23
2022-10-21T18:18:19.244Z,1.70
2022-10-21T18:20:46.568Z,1.58
2022-10-21T18:23:14.749Z,1.50
2022-10-21T18:25:43.027Z,1.60
2022-10-21T18:28:10.381Z,1.30
2022-10-21T18:30:42.366Z,1.33
2022-10-21T18:33:09.912Z,1.70
2022-10-21T18:35:37.300Z,1.33
2022-10-21T18:38:04.587Z,1.63
2022-10-21T18:40:33.467Z,1.88
2022-10-21T18:43:00.726Z,1.90
2022-10-21T18:45:28.005Z,1.45
2022-10-21T18:47:55.683Z,2.22
2022-10-21T18:50:23.009Z,1.75
2022-10-21T18:52:50.191Z,1.90
2022-10-21T18:55:17.557Z,1.60
2022-10-21T18:57:44.826Z,1.33
2022-10-21T19:00:12.222Z,1.30
2022-10-21T19:02:39.569Z,1.35
2022-10-21T19:05:06.952Z,1.45
2022-10-21T19:07:34.266Z,1.45
2022-10-21T19:10:01.149Z,1.25
2022-10-21T19:12:28.520Z,1.33
2022-10-21T19:14:55.885Z,1.23
2022-10-21T19:17:23.587Z,1.75
2022-10-21T19:19:50.916Z,1.30
2022-10-21T19:22:18.431Z,1.58
2022-10-21T19:24:45.888Z,1.50
2022-10-21T19:27:13.339Z,1.45
2022-10-21T19:29:40.603Z,1.45
2022-10-21T19:32:07.837Z,1.55
2022-10-21T19:34:35.035Z,1.40
2022-10-21T19:37:02.249Z,1.33
2022-10-21T19:39:29.443Z,1.40
2022-10-21T19:41:56.699Z,1.10
2022-10-21T19:44:23.924Z,1.60
2022-10-21T19:46:52.439Z,1.40
2022-10-21T19:49:19.684Z,1.45
2022-10-21T19:51:46.884Z,1.83
2022-10-21T19:54:14.710Z,1.50
2022-10-21T19:56:42.463Z,1.50
2022-10-21T19:59:10.525Z,1.65
2022-10-21T20:01:37.927Z,1.67
2022-10-21T20:04:05.575Z,1.38
2022-10-21T20:06:34.309Z,1.42
2022-10-21T20:09:02.785Z,1.35
2022-10-21T20:11:30.503Z,1.80
2022-10-21T20:13:59.964Z,1.60
2022-10-21T20:16:28.627Z,1.70
2022-10-21T20:18:56.519Z,1.55
2022-10-21T20:21:24.276Z,1.60
2022-10-21T20:23:51.748Z,1.60
2022-10-21T20:26:19.039Z,1.70
2022-10-21T20:28:46.309Z,1.50
2022-10-21T20:31:14.966Z,1.67
2022-10-21T20:33:43.295Z,1.77
2022-10-21T20:36:15.008Z,1.48
2022-10-21T20:38:42.289Z,1.30
2022-10-21T20:41:11.529Z,1.40
2022-10-21T20:43:39.874Z,1.30
2022-10-21T20:46:08.524Z,1.40
2022-10-21T20:48:36.404Z,2.20
2022-10-21T20:51:04.396Z,2.17
2022-10-21T20:53:31.943Z,2.35
2022-10-21T20:56:00.098Z,2.25
2022-10-21T20:58:27.708Z,2.33
2022-10-21T21:00:54.922Z,1.88
2022-10-21T21:03:23.031Z,1.52
2022-10-21T21:05:50.239Z,1.70
2022-10-21T21:08:17.060Z,1.58
2022-10-21T21:10:44.281Z,1.98
2022-10-21T21:13:11.041Z,1.48
2022-10-21T21:15:38.232Z,1.30
2022-10-21T21:18:11.423Z,1.50
2022-10-21T21:20:38.642Z,1.40
2022-10-21T21:23:06.033Z,1.40
2022-10-21T21:25:33.251Z,1.25
2022-10-21T21:28:00.522Z,1.02
2022-10-21T21:30:27.709Z,1.27
2022-10-21T21:32:55.137Z,1.50
2022-10-21T21:35:21.910Z,1.80
2022-10-21T21:37:49.107Z,1.27
2022-10-21T21:40:15.875Z,1.67
2022-10-21T21:42:43.079Z,1.95
2022-10-21T21:45:10.837Z,1.50
2022-10-21T21:47:38.082Z,1.80
2022-10-21T21:50:05.456Z,1.50
2022-10-21T21:52:32.749Z,1.67
2022-10-21T21:54:59.989Z,1.17
2022-10-21T21:57:28.272Z,1.55
2022-10-21T21:59:55.904Z,1.42
2022-10-21T22:02:23.108Z,1.83
2022-10-21T22:04:50.465Z,1.73
2022-10-21T22:07:17.880Z,1.38
2022-10-21T22:09:45.054Z,1.15
2022-10-21T22:12:14.696Z,1.25
2022-10-21T22:14:42.626Z,2.03
2022-10-21T22:17:09.870Z,1.30
2022-10-21T22:19:37.312Z,1.35
2022-10-21T22:22:04.870Z,1.75
2022-10-21T22:27:01.253Z,1.25
2022-10-21T22:29:29.078Z,1.25
2022-10-21T22:31:56.480Z,1.10
2022-10-21T22:34:23.815Z,1.60
2022-10-21T22:36:51.416Z,1.55
2022-10-21T22:39:19.102Z,1.33
2022-10-21T22:41:46.741Z,1.27
2022-10-21T22:44:14.444Z,2.08
2022-10-21T22:46:41.835Z,1.75
2022-10-21T22:49:10.529Z,1.60
2022-10-21T22:51:38.018Z,1.33
2022-10-21T22:54:11.644Z,1.73
2022-10-21T22:56:46.824Z,1.80
2022-10-21T22:59:14.344Z,1.35
2022-10-21T23:01:41.879Z,1.42
2022-10-21T23:04:09.723Z,1.85
2022-10-21T23:06:37.104Z,1.77
2022-10-21T23:09:04.958Z,1.23
2022-10-21T23:11:32.515Z,1.45
2022-10-21T23:14:07.820Z,1.20
2022-10-21T23:16:36.807Z,2.00
2022-10-21T23:19:04.254Z,1.38
2022-10-21T23:21:31.547Z,1.77
2022-10-21T23:23:58.910Z,1.40
2022-10-21T23:26:26.211Z,1.70
2022-10-21T23:28:53.032Z,2.08
2022-10-21T23:31:20.251Z,1.80
2022-10-21T23:33:47.506Z,1.38
2022-10-21T23:36:14.702Z,1.70
2022-10-21T23:38:41.937Z,1.48
2022-10-21T23:41:09.184Z,1.50
2022-10-21T23:43:35.962Z,1.63
2022-10-21T23:46:03.194Z,1.40
2022-10-21T23:48:30.397Z,1.50
2022-10-21T23:50:57.595Z,1.40
2022-10-21T23:53:24.905Z,1.45
2022-10-21T23:55:52.117Z,1.95
2022-10-21T23:58:19.325Z,1.38
